createdAt,value
2022-11-28T00:10:01.525Z,103025.06
2022-11-28T00:20:05.213Z,103028.13
2022-11-28T00:30:11.083Z,103033.06
2022-11-28T00:40:14.031Z,103040.19
2022-11-28T00:50:18.764Z,103046.97
2022-11-28T01:00:22.292Z,103047.88
2022-11-28T01:10:27.490Z,103049.53
2022-11-28T01:20:30.385Z,103053.38
2022-11-28T01:30:35.422Z,103057.94
2022-11-28T01:40:45.334Z,103049.16
2022-11-28T01:50:55.734Z,103047.72
2022-11-28T02:00:58.934Z,103052.66
2022-11-28T02:11:31.375Z,103057.38
2022-11-28T02:21:54.390Z,103061.41
2022-11-28T02:32:06.509Z,103067.34
2022-11-28T02:42:15.620Z,103073.47
2022-11-28T02:52:24.519Z,103071.31
2022-11-28T03:02:33.804Z,103074.41
2022-11-28T03:12:49.986Z,103074.22
2022-11-28T03:23:12.558Z,103078.56
2022-11-28T03:33:19.279Z,103082.81
2022-11-28T03:43:28.250Z,103088.50
2022-11-28T03:53:44.882Z,103093.13
2022-11-28T04:03:55.452Z,103098.53
2022-11-28T04:14:08.973Z,103101.97
2022-11-28T04:24:20.751Z,103101.09
2022-11-28T04:34:28.101Z,103102.16
2022-11-28T04:44:37.712Z,103101.03
2022-11-28T04:54:51.974Z,103100.34
2022-11-28T05:04:56.044Z,103101.84
2022-11-28T05:15:00.557Z,103108.94
2022-11-28T05:25:11.064Z,103116.91
2022-11-28T05:35:17.173Z,103124.53
2022-11-28T05:45:20.430Z,103129.59
2022-11-28T05:55:24.882Z,103129.94
2022-11-28T06:05:42.846Z,103137.41
2022-11-28T06:15:47.937Z,103144.25
2022-11-28T06:25:50.935Z,103148.16
2022-11-28T06:36:07.068Z,103156.31
2022-11-28T06:46:15.897Z,103158.31
2022-11-28T06:56:21.698Z,103165.19
2022-11-28T07:06:26.991Z,103172.34
2022-11-28T07:16:33.131Z,103180.19
2022-11-28T07:26:38.198Z,103183.88
2022-11-28T07:36:42.943Z,103188.06
2022-11-28T07:46:49.397Z,103192.91
2022-11-28T07:57:12.499Z,103194.91
2022-11-28T08:07:16.542Z,103196.63
2022-11-28T08:17:21.382Z,103197.16
2022-11-28T08:27:30.139Z,103200.66
2022-11-28T08:37:34.976Z,103202.47
2022-11-28T08:47:42.564Z,103203.72
2022-11-28T08:57:46.984Z,103209.28
2022-11-28T09:07:51.346Z,103211.00
2022-11-28T09:17:56.779Z,103214.75
2022-11-28T09:28:01.563Z,103215.56
2022-11-28T09:38:09.617Z,103213.13
2022-11-28T09:48:31.329Z,103214.09
2022-11-28T09:59:25.092Z,103217.69
2022-11-28T10:09:37.568Z,103217.06
2022-11-28T10:19:55.371Z,103219.38
2022-11-28T10:30:03.194Z,103218.69
2022-11-28T10:40:20.533Z,103214.75
2022-11-28T10:50:34.145Z,103220.00
2022-11-28T11:00:39.613Z,103217.88
2022-11-28T11:10:49.618Z,103220.28
2022-11-28T11:21:08.652Z,103221.09
2022-11-28T11:31:26.558Z,103222.09
2022-11-28T11:41:34.268Z,103222.50
2022-11-28T11:51:39.506Z,103212.59
2022-11-28T12:01:46.802Z,103216.72
2022-11-28T12:11:54.633Z,103221.81
2022-11-28T12:22:12.491Z,103222.22
2022-11-28T12:32:29.134Z,103226.19
2022-11-28T12:42:51.691Z,103230.59
2022-11-28T12:53:02.181Z,103233.72
2022-11-28T13:03:17.308Z,103234.38
2022-11-28T13:13:25.614Z,103240.19
2022-11-28T13:23:40.672Z,103245.50
2022-11-28T13:33:50.555Z,103250.16
2022-11-28T13:44:02.585Z,103255.38
2022-11-28T13:54:42.772Z,103259.50
2022-11-28T14:04:48.162Z,103264.66
2022-11-28T14:15:06.620Z,103265.41
2022-11-28T14:25:18.830Z,103266.00
2022-11-28T14:36:04.593Z,103270.66
2022-11-28T14:46:30.537Z,103270.34
2022-11-28T14:56:35.560Z,103270.72
2022-11-28T15:06:48.276Z,103274.28
2022-11-28T15:16:58.688Z,103276.44
2022-11-28T15:27:32.974Z,103279.19
2022-11-28T15:37:36.608Z,103282.06
2022-11-28T15:47:41.120Z,103279.91
2022-11-28T15:57:44.418Z,103283.28
2022-11-28T16:07:52.846Z,103287.22
2022-11-28T16:18:00.033Z,103290.41
2022-11-28T16:28:26.139Z,103290.25
2022-11-28T16:38:33.316Z,103292.63
2022-11-28T16:48:46.877Z,103295.78
2022-11-28T16:58:54.066Z,103299.06
2022-11-28T17:08:59.303Z,103291.47
2022-11-28T17:19:03.785Z,103291.53
2022-11-28T17:29:13.223Z,103291.25
2022-11-28T17:39:19.132Z,103295.25
2022-11-28T17:49:26.032Z,103299.13
2022-11-28T17:59:29.625Z,103303.00
2022-11-28T18:09:41.591Z,103306.53
2022-11-28T18:19:47.027Z,103309.88
2022-11-28T18:29:51.584Z,103313.50
2022-11-28T18:39:54.721Z,103317.31
2022-11-28T18:50:02.007Z,103321.97
2022-11-28T19:00:09.479Z,103324.94
2022-11-28T19:10:18.273Z,103326.06
2022-11-28T19:20:24.904Z,103330.38
2022-11-28T19:30:29.954Z,103328.28
2022-11-28T19:40:35.861Z,103327.84
2022-11-28T19:50:40.519Z,103334.25
2022-11-28T20:00:43.955Z,103340.28
2022-11-28T20:10:48.549Z,103341.78
2022-11-28T20:20:51.674Z,103347.56
2022-11-28T20:30:56.131Z,103350.53
2022-11-28T20:41:01.157Z,103355.44
2022-11-28T20:51:09.088Z,103360.63
2022-11-28T21:01:18.646Z,103363.09
2022-11-28T21:11:55.228Z,103359.88
2022-11-28T21:21:47.683Z,103364.53
2022-11-28T21:31:52.773Z,103366.13
2022-11-28T21:42:00.101Z,103371.69
2022-11-28T21:52:06.540Z,103370.75
2022-11-28T22:02:13.169Z,103369.84
2022-11-28T22:12:17.632Z,103375.78
2022-11-28T22:22:20.845Z,103380.47
2022-11-28T22:32:25.443Z,103380.47
2022-11-28T22:42:28.456Z,103383.06
2022-11-28T22:52:34.773Z,103388.53
2022-11-28T23:02:37.824Z,103393.25
2022-11-28T23:12:42.428Z,103398.50
2022-11-28T23:22:46.645Z,103403.06
2022-11-28T23:32:51.075Z,103406.81
2022-11-28T23:42:54.025Z,103409.53
2022-11-28T23:52:58.369Z,103413.50
